Time;durP1;ratioP1;P1;durP2;ratioP2;P2;SDS_P1;SDS_P2;PMS_P1;PMS_P2;Temp;Humidity;BMP_temperature;BMP_pressure;BME280_temperature;BME280_humidity;BME280_pressure;Samples;Min_cycle;Max_cycle;Signal;HPM_P1;HPM_P2
2023/09/04 00:00:27;;;;;;;6.23;1.80;;;14.40;99.90;;;;;;5003882;28;20271;-60
2023/09/04 00:02:53;;;;;;;2.70;1.60;;;14.40;99.90;;;;;;5005894;28;20198;-60
2023/09/04 00:05:18;;;;;;;6.00;1.53;;;14.50;99.90;;;;;;5011491;28;20197;-60
2023/09/04 00:07:45;;;;;;;3.37;1.43;;;14.40;99.90;;;;;;4998602;28;20569;-60
2023/09/04 00:10:12;;;;;;;4.13;1.60;;;14.40;99.90;;;;;;4992788;28;20667;-60
2023/09/04 00:12:38;;;;;;;2.60;1.30;;;14.30;99.90;;;;;;4991969;28;20438;-60
2023/09/04 00:15:04;;;;;;;7.43;1.50;;;14.30;99.90;;;;;;4990336;28;20439;-60
2023/09/04 00:17:30;;;;;;;3.23;1.40;;;14.30;99.90;;;;;;4991081;28;20221;-60
2023/09/04 00:19:56;;;;;;;3.30;1.90;;;14.30;99.90;;;;;;4995031;28;20457;-60
2023/09/04 00:22:22;;;;;;;2.33;1.50;;;14.30;99.90;;;;;;5006851;28;20639;-60
2023/09/04 00:24:48;;;;;;;2.63;1.67;;;14.30;99.90;;;;;;5010758;28;20414;-60
2023/09/04 00:27:14;;;;;;;6.50;1.67;;;14.20;99.90;;;;;;5011355;28;20440;-60
2023/09/04 00:29:39;;;;;;;3.20;1.37;;;14.20;99.90;;;;;;5011371;28;20229;-60
2023/09/04 00:32:06;;;;;;;2.57;1.60;;;14.20;99.90;;;;;;5008774;28;20418;-60
2023/09/04 00:34:32;;;;;;;3.60;1.30;;;14.20;99.90;;;;;;4999236;28;20183;-60
2023/09/04 00:36:58;;;;;;;7.73;1.67;;;14.20;99.90;;;;;;5011157;28;20448;-60
2023/09/04 00:39:24;;;;;;;2.90;1.13;;;14.20;99.90;;;;;;5003281;28;20461;-60
2023/09/04 00:41:50;;;;;;;2.13;1.20;;;14.20;99.90;;;;;;5005865;28;20505;-60
2023/09/04 00:44:16;;;;;;;7.63;1.17;;;14.20;99.90;;;;;;5011071;28;20211;-60
2023/09/04 00:46:43;;;;;;;3.37;1.80;;;14.10;99.90;;;;;;4991695;28;20183;-60
2023/09/04 00:49:11;;;;;;;3.20;1.80;;;14.10;99.90;;;;;;5011365;28;20425;-60
2023/09/04 00:51:38;;;;;;;18.13;2.37;;;14.10;99.90;;;;;;5010441;28;20583;-60
2023/09/04 00:54:04;;;;;;;3.73;1.40;;;14.00;99.90;;;;;;4987589;28;20796;-60
2023/09/04 00:56:30;;;;;;;2.70;1.60;;;14.00;99.90;;;;;;4982835;28;20435;-60
2023/09/04 00:58:56;;;;;;;2.63;1.20;;;14.00;99.90;;;;;;4983427;28;20542;-60
2023/09/04 01:01:21;;;;;;;2.77;1.30;;;13.90;99.90;;;;;;4981810;28;20792;-60
2023/09/04 01:03:47;;;;;;;2.30;1.27;;;14.00;99.90;;;;;;4983209;28;20273;-60
2023/09/04 01:06:14;;;;;;;3.87;1.80;;;14.00;99.90;;;;;;4982463;28;20241;-60
2023/09/04 01:08:39;;;;;;;3.50;1.70;;;13.90;99.90;;;;;;4983042;28;20212;-60
2023/09/04 01:11:08;;;;;;;2.20;1.23;;;13.90;99.90;;;;;;4983037;28;20467;-60
2023/09/04 01:13:37;;;;;;;5.00;2.00;;;14.00;99.90;;;;;;4982985;28;20243;-60
2023/09/04 01:16:05;;;;;;;2.90;1.63;;;14.00;99.90;;;;;;4981568;28;20431;-60
2023/09/04 01:18:31;;;;;;;2.80;1.47;;;13.90;99.90;;;;;;4982929;28;20430;-60
2023/09/04 01:21:04;;;;;;;2.70;1.50;;;13.90;99.90;;;;;;4983162;28;20447;-60
2023/09/04 01:23:31;;;;;;;2.27;1.70;;;13.90;99.90;;;;;;4983015;28;20211;-60
2023/09/04 01:26:35;;;;;;;3.20;1.70;;;13.90;99.90;;;;;;4982872;28;20434;-60
2023/09/04 01:29:20;;;;;;;2.00;1.47;;;13.90;99.90;;;;;;4983146;28;20426;-60
2023/09/04 01:32:18;;;;;;;2.27;1.70;;;13.80;99.90;;;;;;4982220;28;20474;-60
2023/09/04 01:34:48;;;;;;;2.13;1.10;;;13.80;99.90;;;;;;4982736;28;20431;-60
2023/09/04 01:37:15;;;;;;;3.43;1.60;;;13.70;99.90;;;;;;4983110;28;20767;-60
2023/09/04 01:39:42;;;;;;;11.53;2.00;;;13.70;99.90;;;;;;4982715;28;20427;-60
2023/09/04 01:42:07;;;;;;;2.13;1.10;;;13.70;99.90;;;;;;4983081;28;20430;-60
2023/09/04 01:44:33;;;;;;;3.73;2.03;;;13.70;99.90;;;;;;4982387;28;20706;-60
2023/09/04 01:46:59;;;;;;;2.93;1.50;;;13.70;99.90;;;;;;4981918;28;20657;-60
2023/09/04 01:49:25;;;;;;;5.17;1.80;;;13.80;99.90;;;;;;4982552;28;20192;-60
2023/09/04 01:51:51;;;;;;;2.67;1.50;;;13.70;99.90;;;;;;4983197;28;20435;-60
2023/09/04 01:54:17;;;;;;;3.90;1.70;;;13.70;99.90;;;;;;4982156;28;20860;-60
2023/09/04 01:56:43;;;;;;;2.57;1.20;;;13.70;99.90;;;;;;4982825;28;20439;-60
2023/09/04 01:59:08;;;;;;;2.10;1.40;;;13.60;99.90;;;;;;4982730;28;20192;-60
2023/09/04 02:01:35;;;;;;;3.53;1.97;;;13.50;99.90;;;;;;4982103;28;21425;-60
2023/09/04 02:04:00;;;;;;;3.20;1.67;;;13.50;99.90;;;;;;4983827;28;20287;-60
2023/09/04 02:06:29;;;;;;;3.53;1.80;;;13.50;99.90;;;;;;4985333;28;20430;-61
2023/09/04 02:08:55;;;;;;;4.37;1.70;;;13.50;99.90;;;;;;4985985;28;20236;-60
2023/09/04 02:11:21;;;;;;;2.23;1.60;;;13.50;99.90;;;;;;4985802;28;20487;-60
2023/09/04 02:13:47;;;;;;;2.10;1.03;;;13.50;99.90;;;;;;4986070;28;20184;-60
2023/09/04 02:16:13;;;;;;;5.57;1.30;;;13.50;99.90;;;;;;4984354;28;20188;-60
2023/09/04 02:18:39;;;;;;;2.90;1.30;;;13.50;99.90;;;;;;4986176;28;20924;-60
2023/09/04 02:21:05;;;;;;;3.73;1.77;;;13.50;99.90;;;;;;4985854;28;20552;-60
2023/09/04 02:23:31;;;;;;;4.40;1.73;;;13.50;99.90;;;;;;4985943;28;20442;-60
2023/09/04 02:25:57;;;;;;;4.20;1.43;;;13.50;99.90;;;;;;4985550;28;20446;-60
2023/09/04 02:28:22;;;;;;;4.37;1.90;;;13.50;99.90;;;;;;4986088;28;20431;-60
2023/09/04 02:30:48;;;;;;;3.07;1.50;;;13.40;99.90;;;;;;4985229;28;20219;-60
2023/09/04 02:33:13;;;;;;;2.60;1.47;;;13.40;99.90;;;;;;4985751;28;20187;-60
2023/09/04 02:35:39;;;;;;;3.20;1.37;;;13.30;99.90;;;;;;4985459;28;20664;-60
2023/09/04 02:38:05;;;;;;;4.90;1.40;;;13.40;99.90;;;;;;4985369;28;20187;-60
2023/09/04 02:40:30;;;;;;;3.07;1.60;;;13.40;99.90;;;;;;4986163;28;20203;-60
2023/09/04 02:42:56;;;;;;;3.60;1.70;;;13.40;99.90;;;;;;4985621;28;20287;-60
2023/09/04 02:45:21;;;;;;;2.70;1.70;;;13.30;99.90;;;;;;4985470;28;20218;-60
2023/09/04 02:47:47;;;;;;;5.83;1.63;;;13.30;99.90;;;;;;4984691;28;20226;-60
2023/09/04 02:50:13;;;;;;;2.70;1.33;;;13.30;99.90;;;;;;4985796;28;20208;-60
2023/09/04 02:52:39;;;;;;;3.83;1.63;;;13.30;99.90;;;;;;4985027;28;20923;-60
2023/09/04 02:55:05;;;;;;;2.80;1.83;;;13.40;99.90;;;;;;4972957;28;20544;-60
2023/09/04 02:57:32;;;;;;;3.17;2.20;;;13.30;99.90;;;;;;4985338;28;20341;-60
2023/09/04 02:59:59;;;;;;;5.23;1.60;;;13.40;99.90;;;;;;4985304;28;20442;-60
2023/09/04 03:02:24;;;;;;;5.80;2.30;;;13.40;99.90;;;;;;4984459;28;21064;-60
2023/09/04 03:04:54;;;;;;;2.70;1.90;;;13.30;99.90;;;;;;4984843;28;20443;-60
2023/09/04 03:07:27;;;;;;;4.87;2.20;;;13.30;99.90;;;;;;4984815;28;20196;-60
2023/09/04 03:09:59;;;;;;;4.00;2.20;;;13.20;99.90;;;;;;4984851;28;20541;-60
2023/09/04 03:12:26;;;;;;;3.73;2.50;;;13.20;99.90;;;;;;4985186;28;20431;-60
2023/09/04 03:15:01;;;;;;;3.03;1.83;;;13.20;99.90;;;;;;4983754;28;20437;-60
2023/09/04 03:17:28;;;;;;;4.20;2.03;;;13.20;99.90;;;;;;4983750;28;20436;-60
2023/09/04 03:19:55;;;;;;;4.47;1.80;;;13.20;99.90;;;;;;4984725;28;20450;-60
2023/09/04 03:22:21;;;;;;;2.57;1.60;;;13.20;99.90;;;;;;4984864;28;20912;-60
2023/09/04 03:24:47;;;;;;;8.03;2.00;;;13.20;99.90;;;;;;4984263;28;20434;-60
2023/09/04 03:27:13;;;;;;;4.40;1.57;;;13.20;99.90;;;;;;4984807;28;20959;-60
2023/09/04 03:29:39;;;;;;;2.63;1.47;;;13.10;99.90;;;;;;4984925;28;20470;-60
2023/09/04 03:32:05;;;;;;;3.10;1.30;;;13.10;99.90;;;;;;4984130;28;20219;-60
2023/09/04 03:34:32;;;;;;;2.73;1.63;;;13.00;99.90;;;;;;4983763;28;20228;-60
2023/09/04 03:36:58;;;;;;;7.30;1.43;;;13.00;99.90;;;;;;4984694;28;20581;-60
2023/09/04 03:39:24;;;;;;;2.47;1.53;;;13.00;99.90;;;;;;4984748;28;20530;-60
2023/09/04 03:41:50;;;;;;;2.83;1.97;;;13.00;99.90;;;;;;4984362;28;20191;-60
2023/09/04 03:44:16;;;;;;;2.90;1.57;;;12.90;99.90;;;;;;4984363;28;20565;-60
2023/09/04 03:46:42;;;;;;;9.20;2.03;;;13.00;99.90;;;;;;4983417;28;20438;-60
2023/09/04 03:49:07;;;;;;;3.40;2.07;;;13.00;99.90;;;;;;4984440;28;20265;-60
2023/09/04 03:51:33;;;;;;;5.00;1.67;;;13.00;99.90;;;;;;4984222;28;20212;-60
2023/09/04 03:54:02;;;;;;;4.20;2.33;;;13.00;99.90;;;;;;4984331;28;20640;-60
2023/09/04 03:56:31;;;;;;;3.87;2.27;;;13.00;99.90;;;;;;4983840;28;20431;-60
2023/09/04 03:58:59;;;;;;;6.23;2.10;;;12.90;99.90;;;;;;4984589;28;20446;-60
2023/09/04 04:01:27;;;;;;;2.67;1.60;;;12.90;99.90;;;;;;4983201;28;20481;-60
2023/09/04 04:03:55;;;;;;;4.23;1.60;;;12.90;99.90;;;;;;4984214;28;20533;-60
2023/09/04 04:06:22;;;;;;;3.17;1.90;;;12.80;99.90;;;;;;4983614;28;20492;-60
2023/09/04 04:08:50;;;;;;;8.73;1.67;;;12.70;99.90;;;;;;4984367;28;20587;-60
2023/09/04 04:11:16;;;;;;;3.67;2.13;;;12.80;99.90;;;;;;4983763;28;20952;-60
2023/09/04 04:13:41;;;;;;;2.50;1.53;;;12.80;99.90;;;;;;4984257;28;20437;-60
2023/09/04 04:16:07;;;;;;;3.43;2.40;;;12.70;99.90;;;;;;4982139;28;20267;-60
2023/09/04 04:18:33;;;;;;;2.13;1.43;;;12.70;99.90;;;;;;4983465;28;20190;-60
2023/09/04 04:20:58;;;;;;;3.37;2.07;;;12.70;99.90;;;;;;4983981;28;20219;-60
2023/09/04 04:23:24;;;;;;;7.60;2.57;;;12.70;99.90;;;;;;4982888;28;20202;-60
2023/09/04 04:25:50;;;;;;;3.47;1.80;;;12.70;99.90;;;;;;4983496;28;20199;-60
2023/09/04 04:28:19;;;;;;;3.80;1.80;;;12.70;99.90;;;;;;4983692;28;20758;-60
2023/09/04 04:30:44;;;;;;;6.90;2.00;;;12.70;99.90;;;;;;4983357;28;21692;-60
2023/09/04 04:33:10;;;;;;;3.20;1.83;;;12.70;99.90;;;;;;4983083;28;20443;-60
2023/09/04 04:35:36;;;;;;;3.70;1.80;;;12.70;99.90;;;;;;4983268;28;20187;-60
2023/09/04 04:38:01;;;;;;;5.20;2.30;;;12.70;99.90;;;;;;4983383;28;20278;-60
2023/09/04 04:40:27;;;;;;;2.33;1.50;;;12.60;99.90;;;;;;4983471;28;20534;-60
2023/09/04 04:42:53;;;;;;;4.10;2.50;;;12.60;99.90;;;;;;4983650;28;20629;-60
2023/09/04 04:45:18;;;;;;;2.80;1.50;;;12.60;99.90;;;;;;4982921;28;20587;-60
2023/09/04 04:47:44;;;;;;;6.73;2.50;;;12.60;99.90;;;;;;4982883;28;20826;-60
2023/09/04 04:50:10;;;;;;;4.43;2.10;;;12.60;99.90;;;;;;4983270;28;20254;-60
2023/09/04 04:52:36;;;;;;;3.57;1.90;;;12.50;99.90;;;;;;4983754;28;20184;-60
2023/09/04 04:55:02;;;;;;;3.37;1.83;;;12.50;99.90;;;;;;4982777;28;20431;-60
2023/09/04 04:57:28;;;;;;;3.50;2.10;;;12.50;99.90;;;;;;4983262;28;20195;-60
2023/09/04 04:59:53;;;;;;;3.23;2.30;;;12.60;99.90;;;;;;4982993;28;20513;-60
2023/09/04 05:02:21;;;;;;;5.27;1.87;;;12.60;99.90;;;;;;4982545;28;20525;-60
2023/09/04 05:04:47;;;;;;;3.87;1.90;;;12.60;99.90;;;;;;4982828;28;20238;-60
2023/09/04 05:07:13;;;;;;;3.53;1.90;;;12.50;99.90;;;;;;4983218;28;20457;-60
2023/09/04 05:09:39;;;;;;;3.20;1.87;;;12.50;99.90;;;;;;4982618;28;20462;-61
2023/09/04 05:12:05;;;;;;;2.30;1.30;;;12.60;99.90;;;;;;4983095;28;20919;-60
2023/09/04 05:14:31;;;;;;;4.23;2.17;;;12.60;99.90;;;;;;4982519;28;20258;-60
2023/09/04 05:16:56;;;;;;;3.47;1.80;;;12.60;99.90;;;;;;4981324;28;21287;-60
2023/09/04 05:19:22;;;;;;;3.17;1.70;;;12.60;99.90;;;;;;4980295;28;20239;-60
2023/09/04 05:21:48;;;;;;;5.40;2.10;;;12.70;99.90;;;;;;4980807;28;20242;-60
2023/09/04 05:24:13;;;;;;;4.00;2.23;;;12.60;99.90;;;;;;4981568;28;20187;-60
2023/09/04 05:26:40;;;;;;;5.03;2.40;;;12.70;99.90;;;;;;4982129;28;20226;-60
2023/09/04 05:29:05;;;;;;;3.30;1.77;;;12.70;99.90;;;;;;4983113;28;20192;-60
2023/09/04 05:31:31;;;;;;;4.87;2.70;;;12.70;99.90;;;;;;4981407;28;20480;-60
2023/09/04 05:33:57;;;;;;;2.70;1.70;;;12.70;99.90;;;;;;4982995;28;20190;-60
2023/09/04 05:36:22;;;;;;;4.87;2.13;;;13.00;99.90;;;;;;4982444;28;20563;-60
2023/09/04 05:38:48;;;;;;;3.13;1.50;;;12.80;99.90;;;;;;4984320;28;20657;-60
2023/09/04 05:41:14;;;;;;;4.23;2.43;;;12.80;99.90;;;;;;4986640;28;20282;-60
2023/09/04 05:43:40;;;;;;;5.07;2.23;;;12.90;99.90;;;;;;4986761;28;20521;-60
2023/09/04 05:46:06;;;;;;;4.50;2.70;;;12.90;99.90;;;;;;4986088;28;20426;-60
2023/09/04 05:48:34;;;;;;;7.77;3.10;;;13.00;99.90;;;;;;4981905;28;20195;-60
2023/09/04 05:51:01;;;;;;;3.83;2.50;;;13.00;99.90;;;;;;4979843;28;20470;-60
2023/09/04 05:53:28;;;;;;;4.20;2.60;;;13.10;99.90;;;;;;4979079;28;20454;-60
2023/09/04 05:56:09;;;;;;;5.30;2.73;;;13.10;99.90;;;;;;4979404;28;20425;-60
2023/09/04 05:58:43;;;;;;;5.67;2.63;;;13.20;99.90;;;;;;4979061;28;20497;-60
2023/09/04 06:01:09;;;;;;;5.60;3.40;;;13.30;99.90;;;;;;4980140;28;21223;-60
2023/09/04 06:03:34;;;;;;;7.17;2.57;;;13.30;99.90;;;;;;4978887;28;20443;-60
2023/09/04 06:06:00;;;;;;;10.17;3.27;;;13.60;99.90;;;;;;4979745;28;20976;-62
2023/09/04 06:08:25;;;;;;;5.90;3.53;;;13.50;99.90;;;;;;4979287;28;20210;-60
2023/09/04 06:10:51;;;;;;;6.27;3.50;;;13.60;99.90;;;;;;4979440;28;20230;-60
2023/09/04 06:13:17;;;;;;;6.20;3.57;;;13.70;99.90;;;;;;4979337;28;21143;-60
2023/09/04 06:15:43;;;;;;;6.30;3.70;;;13.80;99.90;;;;;;4978640;28;20188;-60
2023/09/04 06:18:08;;;;;;;7.83;4.10;;;13.90;99.90;;;;;;4981963;28;20188;-60
2023/09/04 06:20:34;;;;;;;8.80;3.83;;;14.00;99.90;;;;;;4984163;28;20199;-60
2023/09/04 06:23:01;;;;;;;9.70;3.20;;;14.10;99.90;;;;;;4985868;28;20321;-60
2023/09/04 06:25:27;;;;;;;10.30;4.27;;;14.30;99.90;;;;;;4984881;28;20195;-60
2023/09/04 06:27:52;;;;;;;10.63;3.73;;;14.40;99.90;;;;;;4984912;28;21106;-60
2023/09/04 06:30:18;;;;;;;4.50;2.97;;;14.50;99.90;;;;;;4985007;28;20765;-60
2023/09/04 06:32:44;;;;;;;8.10;3.60;;;14.60;99.90;;;;;;4985055;28;20220;-60
2023/09/04 06:35:09;;;;;;;6.70;3.37;;;14.80;99.90;;;;;;4984970;28;20215;-60
2023/09/04 06:37:35;;;;;;;6.50;3.50;;;14.90;99.90;;;;;;4985664;28;20525;-60
2023/09/04 06:40:02;;;;;;;9.63;3.20;;;15.00;99.90;;;;;;4985003;28;20208;-60
2023/09/04 06:42:27;;;;;;;5.50;3.57;;;15.10;99.90;;;;;;4985660;28;20187;-60
2023/09/04 06:44:53;;;;;;;5.30;3.03;;;15.20;99.90;;;;;;4985262;28;20442;-60
2023/09/04 06:47:18;;;;;;;6.43;3.60;;;15.30;99.90;;;;;;4984915;28;20215;-60
2023/09/04 06:49:44;;;;;;;8.40;2.90;;;15.50;99.90;;;;;;4985043;28;20187;-60
2023/09/04 06:52:10;;;;;;;6.60;4.10;;;15.70;99.90;;;;;;4984159;28;21150;-60
2023/09/04 06:54:35;;;;;;;6.83;3.53;;;15.80;99.90;;;;;;4984535;28;20241;-60
2023/09/04 06:57:02;;;;;;;6.27;3.80;;;15.90;99.90;;;;;;4984795;28;20194;-60
2023/09/04 06:59:27;;;;;;;4.70;3.10;;;16.00;99.90;;;;;;4985167;28;20195;-60
2023/09/04 07:01:53;;;;;;;10.50;3.33;;;16.20;99.90;;;;;;4985005;28;20443;-60
2023/09/04 07:04:18;;;;;;;7.77;3.23;;;16.30;99.90;;;;;;4985614;28;20924;-60
2023/09/04 07:06:44;;;;;;;5.57;2.93;;;16.50;99.90;;;;;;4985424;28;20203;-60
2023/09/04 07:09:10;;;;;;;5.70;2.90;;;16.60;99.90;;;;;;4985527;28;20207;-60
2023/09/04 07:11:36;;;;;;;5.00;3.30;;;17.00;99.90;;;;;;4985439;28;20215;-60
2023/09/04 07:14:02;;;;;;;5.03;2.70;;;17.50;99.90;;;;;;4985790;28;20438;-60
2023/09/04 07:16:28;;;;;;;9.10;3.00;;;18.00;99.90;;;;;;4983545;28;20925;-61
2023/09/04 07:18:54;;;;;;;6.87;2.70;;;18.40;99.90;;;;;;4985184;28;20274;-61
2023/09/04 07:21:20;;;;;;;4.20;2.70;;;18.70;99.90;;;;;;4985404;28;20199;-60
2023/09/04 07:23:46;;;;;;;11.20;2.50;;;19.10;99.90;;;;;;4985358;28;20467;-61
2023/09/04 07:26:11;;;;;;;5.37;2.77;;;19.90;99.90;;;;;;4984947;28;20294;-61
2023/09/04 07:28:37;;;;;;;6.73;2.10;;;20.70;99.90;;;;;;4985062;28;21214;-61
2023/09/04 07:31:29;;;;;;;4.23;2.50;;;22.00;99.90;;;;;;4985069;28;20243;-61
2023/09/04 07:33:55;;;;;;;4.43;2.50;;;23.20;99.90;;;;;;4981843;28;20195;-61
2023/09/04 07:36:20;;;;;;;6.10;2.60;;;24.40;99.80;;;;;;4984819;28;20508;-61
2023/09/04 07:38:47;;;;;;;5.17;1.87;;;24.80;98.40;;;;;;4985301;28;21528;-61
2023/09/04 07:41:13;;;;;;;9.90;2.60;;;24.60;98.50;;;;;;4985394;28;21478;-61
2023/09/04 07:43:38;;;;;;;3.20;1.83;;;25.00;97.80;;;;;;4985006;28;20438;-61
2023/09/04 07:46:04;;;;;;;3.93;2.33;;;24.50;98.50;;;;;;4984686;28;20547;-61
2023/09/04 07:48:30;;;;;;;3.80;2.50;;;24.20;98.90;;;;;;4984960;28;20206;-61
2023/09/04 07:50:59;;;;;;;3.20;2.00;;;24.70;97.80;;;;;;4984608;28;20215;-61
2023/09/04 07:53:25;;;;;;;3.67;2.23;;;24.50;98.10;;;;;;4984877;28;20472;-61
2023/09/04 07:55:51;;;;;;;2.80;1.80;;;24.30;98.20;;;;;;4984015;28;20517;-61
2023/09/04 07:58:17;;;;;;;3.40;1.70;;;24.20;98.20;;;;;;4984450;28;21536;-61
2023/09/04 08:00:50;;;;;;;3.90;2.50;;;23.90;98.40;;;;;;4984374;28;20434;-61
2023/09/04 08:03:17;;;;;;;4.43;2.40;;;24.20;98.10;;;;;;4983400;28;20469;-61
2023/09/04 08:05:43;;;;;;;3.93;2.07;;;23.80;97.80;;;;;;4983784;28;20438;-61
2023/09/04 08:08:10;;;;;;;3.50;1.73;;;23.60;98.20;;;;;;4982966;28;20450;-61
2023/09/04 08:10:42;;;;;;;5.47;2.10;;;24.40;97.80;;;;;;4983186;28;20489;-61
2023/09/04 08:13:10;;;;;;;4.23;2.10;;;24.50;98.00;;;;;;4982821;28;20430;-61
2023/09/04 08:15:36;;;;;;;3.40;1.73;;;24.40;97.60;;;;;;4983025;28;21833;-61
2023/09/04 08:18:01;;;;;;;3.37;1.83;;;24.60;97.60;;;;;;4982601;28;20438;-61
2023/09/04 08:20:27;;;;;;;3.50;1.67;;;24.40;96.80;;;;;;4983400;28;21387;-61
2023/09/04 08:22:53;;;;;;;3.30;1.93;;;24.80;96.50;;;;;;4983359;28;20199;-61
2023/09/04 08:25:18;;;;;;;5.23;1.83;;;24.70;97.30;;;;;;4983624;28;20187;-61
2023/09/04 08:27:44;;;;;;;4.40;2.23;;;24.60;97.60;;;;;;4983337;28;20604;-61
2023/09/04 08:30:10;;;;;;;2.90;2.00;;;24.30;97.40;;;;;;4984592;28;20218;-61
2023/09/04 08:32:36;;;;;;;6.43;2.07;;;24.60;96.60;;;;;;4983142;28;20194;-61
2023/09/04 08:35:02;;;;;;;4.03;2.00;;;24.70;96.50;;;;;;4983825;28;20184;-61
2023/09/04 08:37:27;;;;;;;2.50;1.40;;;25.10;96.30;;;;;;4983895;28;20179;-61
2023/09/04 08:39:53;;;;;;;5.57;2.20;;;24.90;96.20;;;;;;4984476;28;20187;-61
2023/09/04 08:42:19;;;;;;;3.27;2.00;;;24.90;96.10;;;;;;4985667;28;20697;-61
2023/09/04 08:44:47;;;;;;;4.78;1.98;;;24.90;96.50;;;;;;4996223;28;20178;-61
2023/09/04 08:47:15;;;;;;;3.22;1.85;;;25.00;96.00;;;;;;4995595;28;20273;-61
2023/09/04 08:49:42;;;;;;;3.47;2.00;;;24.80;96.20;;;;;;4993852;28;20191;-61
2023/09/04 08:52:08;;;;;;;3.75;2.20;;;24.80;96.60;;;;;;4995210;28;20191;-61
2023/09/04 08:54:34;;;;;;;2.72;1.75;;;25.20;95.60;;;;;;4994291;28;20183;-61
2023/09/04 08:57:00;;;;;;;3.55;2.05;;;24.80;95.60;;;;;;4998506;28;20182;-61
2023/09/04 08:59:25;;;;;;;5.20;2.53;;;24.90;95.20;;;;;;4993345;28;20505;-61
2023/09/04 09:01:53;;;;;;;4.10;1.75;;;24.80;96.00;;;;;;5004177;28;20264;-61
2023/09/04 09:04:20;;;;;;;4.85;2.45;;;24.90;95.40;;;;;;4991194;28;20266;-61
2023/09/04 09:06:48;;;;;;;2.70;1.48;;;24.90;95.20;;;;;;4991489;28;20202;-61
2023/09/04 09:09:15;;;;;;;5.35;2.30;;;25.40;94.50;;;;;;4991018;28;20513;-61
2023/09/04 09:11:42;;;;;;;5.05;2.00;;;25.00;94.80;;;;;;4991383;28;20202;-61
2023/09/04 09:14:08;;;;;;;4.10;1.98;;;24.50;94.80;;;;;;4987168;28;20180;-62
2023/09/04 09:16:34;;;;;;;2.92;1.60;;;24.90;95.20;;;;;;4989721;28;20183;-62
2023/09/04 09:19:01;;;;;;;3.47;1.70;;;24.80;95.30;;;;;;4988688;28;20175;-62
2023/09/04 09:21:28;;;;;;;3.65;2.00;;;25.00;95.30;;;;;;4990283;28;20234;-62
2023/09/04 09:24:07;;;;;;;2.97;1.90;;;25.20;95.10;;;;;;4987837;28;20190;-62
2023/09/04 09:26:33;;;;;;;3.78;2.50;;;25.70;94.00;;;;;;4989241;28;20175;-62
2023/09/04 09:29:06;;;;;;;3.05;1.95;;;25.70;93.90;;;;;;4989321;28;20304;-62
2023/09/04 09:31:32;;;;;;;5.43;2.33;;;25.90;93.30;;;;;;4988786;28;20226;-62
2023/09/04 09:33:59;;;;;;;3.35;1.92;;;25.40;93.80;;;;;;4988432;28;20637;-62
2023/09/04 09:36:25;;;;;;;6.47;2.08;;;25.70;94.80;;;;;;4986992;28;20676;-62
2023/09/04 09:38:53;;;;;;;3.85;2.47;;;26.10;94.80;;;;;;4989929;28;20262;-62
2023/09/04 09:41:18;;;;;;;7.15;2.38;;;26.10;94.00;;;;;;4988913;28;20211;-62
2023/09/04 09:43:44;;;;;;;7.22;2.08;;;26.40;94.10;;;;;;5000022;28;20728;-62
2023/09/04 09:46:10;;;;;;;5.15;2.13;;;26.20;93.90;;;;;;4997887;28;20183;-62
2023/09/04 09:48:39;;;;;;;4.97;2.00;;;26.00;93.40;;;;;;5003958;28;20210;-62
2023/09/04 09:51:10;;;;;;;4.72;2.15;;;26.00;93.10;;;;;;4996075;28;20199;-61
2023/09/04 09:53:57;;;;;;;5.30;2.60;;;25.80;92.90;;;;;;5008461;28;20176;-61
2023/09/04 09:56:23;;;;;;;4.47;2.58;;;25.40;93.20;;;;;;5007819;28;20186;-61
2023/09/04 09:58:49;;;;;;;2.80;1.80;;;24.80;94.20;;;;;;4995440;28;20192;-61
2023/09/04 10:01:17;;;;;;;4.73;2.30;;;24.70;94.40;;;;;;5005634;28;20273;-61
2023/09/04 10:03:44;;;;;;;3.40;1.97;;;24.60;94.90;;;;;;4993241;28;20636;-61
2023/09/04 10:06:14;;;;;;;6.70;1.93;;;24.50;94.40;;;;;;4995456;28;20787;-61
2023/09/04 10:08:43;;;;;;;7.80;2.10;;;24.20;94.00;;;;;;4994799;28;20474;-61
2023/09/04 10:11:14;;;;;;;3.27;2.07;;;24.30;94.70;;;;;;4997611;28;20457;-61
2023/09/04 10:14:14;;;;;;;2.30;1.33;;;24.10;95.00;;;;;;5014526;28;20482;-61
2023/09/04 10:16:49;;;;;;;3.90;1.97;;;24.20;93.90;;;;;;5013858;28;20410;-61
2023/09/04 10:19:18;;;;;;;7.10;2.20;;;24.30;95.20;;;;;;5001034;28;20910;-61
2023/09/04 10:21:49;;;;;;;8.07;2.17;;;24.40;93.70;;;;;;5000790;28;20958;-61
2023/09/04 10:24:20;;;;;;;4.23;1.87;;;24.20;93.90;;;;;;5007144;28;20433;-61
2023/09/04 10:27:13;;;;;;;4.40;2.03;;;24.40;94.30;;;;;;4989701;28;20413;-61
2023/09/04 10:29:46;;;;;;;3.93;2.43;;;24.40;93.70;;;;;;5009522;28;20457;-61
2023/09/04 10:32:13;;;;;;;5.43;2.10;;;24.40;94.30;;;;;;5011139;28;20904;-61
2023/09/04 10:34:40;;;;;;;10.83;2.20;;;24.50;93.80;;;;;;5000007;28;20414;-61
2023/09/04 10:37:09;;;;;;;4.10;2.10;;;24.50;93.30;;;;;;4997880;28;20410;-61
2023/09/04 10:39:35;;;;;;;3.30;1.90;;;24.70;92.80;;;;;;4994707;28;21014;-61
2023/09/04 10:42:01;;;;;;;4.83;2.00;;;24.80;92.40;;;;;;4997673;28;20902;-61
2023/09/04 10:44:49;;;;;;;4.27;2.40;;;24.60;92.90;;;;;;4994812;28;20410;-61
2023/09/04 10:47:16;;;;;;;11.93;2.23;;;24.80;92.60;;;;;;4993529;28;20202;-61
2023/09/04 10:49:42;;;;;;;2.47;1.67;;;24.90;91.70;;;;;;4994446;28;20449;-63
2023/09/04 10:52:09;;;;;;;7.83;2.43;;;25.00;91.40;;;;;;4988032;28;20457;-63
2023/09/04 10:54:35;;;;;;;3.90;2.13;;;25.00;91.40;;;;;;5012522;28;20524;-63
2023/09/04 10:57:05;;;;;;;6.63;2.20;;;25.20;91.30;;;;;;5013598;28;20941;-63
2023/09/04 10:59:54;;;;;;;2.73;1.60;;;25.20;91.30;;;;;;5013600;28;20662;-63
2023/09/04 11:02:35;;;;;;;3.03;1.50;;;25.30;90.50;;;;;;5010199;28;20426;-63
2023/09/04 11:05:02;;;;;;;4.13;1.67;;;25.50;91.20;;;;;;5012484;28;20421;-62
2023/09/04 11:07:30;;;;;;;4.20;2.07;;;25.50;90.40;;;;;;5003001;28;20426;-63
2023/09/04 11:10:10;;;;;;;5.13;1.60;;;25.50;90.50;;;;;;4988241;28;20500;-62
2023/09/04 11:12:37;;;;;;;4.60;2.13;;;25.50;90.20;;;;;;4993549;28;20517;-62
2023/09/04 11:15:17;;;;;;;3.90;1.50;;;25.40;89.90;;;;;;4995237;28;20413;-62
2023/09/04 11:17:48;;;;;;;3.47;1.70;;;25.60;89.20;;;;;;4996558;28;20768;-63
2023/09/04 11:20:16;;;;;;;6.53;2.33;;;25.80;86.80;;;;;;5013188;28;20425;-63
2023/09/04 11:22:48;;;;;;;2.57;1.43;;;25.50;85.80;;;;;;5005472;28;20442;-62
2023/09/04 11:25:17;;;;;;;2.67;1.40;;;25.50;87.60;;;;;;4991606;28;20437;-62
2023/09/04 11:27:46;;;;;;;3.33;1.47;;;25.60;86.80;;;;;;4991266;28;20485;-62
2023/09/04 11:30:13;;;;;;;3.03;1.40;;;25.90;84.20;;;;;;4993138;28;20454;-62
2023/09/04 11:32:39;;;;;;;3.50;1.90;;;25.80;87.00;;;;;;4991907;28;20517;-62
2023/09/04 11:35:13;;;;;;;3.77;1.60;;;26.10;86.20;;;;;;4980741;28;20828;-62
2023/09/04 11:37:39;;;;;;;3.40;1.80;;;26.10;85.10;;;;;;4990281;28;20252;-62
2023/09/04 11:40:08;;;;;;;3.70;2.07;;;26.30;84.20;;;;;;4986036;28;20199;-62
2023/09/04 11:42:34;;;;;;;3.30;1.40;;;26.50;82.70;;;;;;4988833;28;20176;-60
2023/09/04 11:45:00;;;;;;;3.03;1.70;;;26.70;83.90;;;;;;4991060;28;20411;-60
2023/09/04 11:47:26;;;;;;;2.53;1.40;;;26.60;84.10;;;;;;4991272;28;20281;-60
2023/09/04 11:49:52;;;;;;;2.90;1.60;;;26.80;81.70;;;;;;4990097;28;20684;-61
2023/09/04 11:52:23;;;;;;;3.63;1.87;;;26.50;82.30;;;;;;4980159;28;20183;-61
2023/09/04 11:54:51;;;;;;;4.80;1.90;;;26.60;81.80;;;;;;4979098;28;20707;-61
2023/09/04 11:57:17;;;;;;;3.30;1.70;;;26.50;82.70;;;;;;4984034;28;20172;-61
2023/09/04 11:59:43;;;;;;;4.03;1.83;;;26.60;83.70;;;;;;4986276;28;20189;-61
2023/09/04 12:02:09;;;;;;;4.13;1.43;;;27.00;80.80;;;;;;4973282;28;20191;-61
2023/09/04 12:04:35;;;;;;;11.60;2.17;;;26.90;80.90;;;;;;4976931;28;20234;-61
2023/09/04 12:07:05;;;;;;;4.30;1.97;;;26.90;79.80;;;;;;4979224;28;20183;-61
2023/09/04 12:09:34;;;;;;;3.30;1.60;;;26.90;79.30;;;;;;4992036;28;20187;-61
2023/09/04 12:12:01;;;;;;;3.93;2.03;;;27.00;79.70;;;;;;4992090;28;20520;-61
2023/09/04 12:14:28;;;;;;;3.03;1.90;;;27.20;82.30;;;;;;4988981;28;20266;-61
2023/09/04 12:16:53;;;;;;;3.60;1.67;;;27.30;77.60;;;;;;4991573;28;20658;-61
2023/09/04 12:19:26;;;;;;;3.20;1.70;;;27.00;77.50;;;;;;4980867;28;20172;-61
2023/09/04 12:21:52;;;;;;;3.57;1.60;;;27.20;76.50;;;;;;4982999;28;20186;-61
2023/09/04 12:24:19;;;;;;;4.50;1.80;;;27.30;78.80;;;;;;4991139;28;20700;-61
2023/09/04 12:26:47;;;;;;;4.00;1.93;;;27.50;75.90;;;;;;4981342;28;20248;-61
2023/09/04 12:29:13;;;;;;;3.20;1.77;;;27.50;74.10;;;;;;4989482;28;20198;-61
2023/09/04 12:31:40;;;;;;;2.33;1.40;;;27.30;77.70;;;;;;4991450;28;20211;-61
2023/09/04 12:34:05;;;;;;;5.83;1.83;;;27.30;75.90;;;;;;4989656;28;20310;-61
2023/09/04 12:36:32;;;;;;;5.47;2.00;;;27.30;76.00;;;;;;4990274;28;20265;-61
2023/09/04 12:38:58;;;;;;;2.93;1.50;;;27.30;72.10;;;;;;4991412;28;20194;-61
2023/09/04 12:41:24;;;;;;;2.63;1.20;;;27.50;72.40;;;;;;4988554;28;20179;-61
2023/09/04 12:43:49;;;;;;;4.53;1.40;;;27.40;73.00;;;;;;4986770;28;20179;-61
2023/09/04 12:46:15;;;;;;;2.57;1.27;;;27.60;74.50;;;;;;4987555;28;20179;-61